Time;durP1;ratioP1;P1;durP2;ratioP2;P2;SDS_P1;SDS_P2;PMS_P1;PMS_P2;Temp;Humidity;BMP_temperature;BMP_pressure;BME280_temperature;BME280_humidity;BME280_pressure;Samples;Min_cycle;Max_cycle;Signal;HPM_P1;HPM_P2
2022/08/18 00:02:28;;;;;;;;;16.25;13.00;;;;;20.82;72.07;100438.00;4977488;28;45606;-75
2022/08/18 00:04:55;;;;;;;;;17.25;15.50;;;;;20.79;72.17;100426.59;4976793;28;45653;-76
2022/08/18 00:07:27;;;;;;;;;15.25;13.50;;;;;20.78;72.50;100431.09;4976213;28;45534;-75
2022/08/18 00:09:53;;;;;;;;;15.25;15.25;;;;;20.71;72.25;100419.91;4976907;28;45477;-75
2022/08/18 00:12:26;;;;;;;;;18.00;17.00;;;;;20.70;72.60;100423.53;4977522;28;45596;-73
2022/08/18 00:14:52;;;;;;;;;17.50;16.00;;;;;20.68;72.59;100428.16;4976935;28;45448;-75
2022/08/18 00:17:18;;;;;;;;;15.50;14.75;;;;;20.64;72.82;100423.06;4976589;28;45443;-75
2022/08/18 00:19:44;;;;;;;;;15.75;14.25;;;;;20.61;72.75;100420.56;4976916;28;45572;-75
2022/08/18 00:22:12;;;;;;;;;16.50;16.00;;;;;20.62;73.28;100431.19;4977478;28;45452;-75
2022/08/18 00:24:38;;;;;;;;;17.25;17.25;;;;;20.56;73.22;100421.72;4977813;28;46255;-75
2022/08/18 00:27:04;;;;;;;;;15.50;12.75;;;;;20.55;73.36;100429.88;4978520;28;45487;-75
2022/08/18 00:29:30;;;;;;;;;14.50;14.25;;;;;20.53;73.01;100427.28;4979467;28;45450;-74
2022/08/18 00:31:56;;;;;;;;;16.00;15.25;;;;;20.55;73.13;100435.22;4996685;28;45432;-75
2022/08/18 00:34:21;;;;;;;;;16.50;14.50;;;;;20.54;73.29;100434.38;4996096;28;45994;-75
2022/08/18 00:36:46;;;;;;;;;16.75;15.00;;;;;20.52;73.62;100435.44;4996790;28;45309;-76
2022/08/18 00:39:12;;;;;;;;;14.50;14.00;;;;;20.50;73.55;100421.25;4976050;28;45535;-75
2022/08/18 00:41:37;;;;;;;;;17.25;17.25;;;;;20.45;73.43;100418.84;4960600;28;45336;-75
2022/08/18 00:44:03;;;;;;;;;18.00;15.50;;;;;20.47;73.22;100426.81;4958750;28;46070;-75
2022/08/18 00:46:35;;;;;;;;;15.00;13.50;;;;;20.46;73.53;100425.09;4990243;28;45649;-75
2022/08/18 00:49:00;;;;;;;;;14.00;14.00;;;;;20.42;73.54;100430.66;4975618;28;45294;-74
2022/08/18 00:51:37;;;;;;;;;16.00;14.00;;;;;20.40;73.44;100427.19;4977508;28;45520;-75
2022/08/18 00:54:26;;;;;;;;;16.00;14.50;;;;;20.42;73.89;100436.03;4979017;28;45379;-75
2022/08/18 00:56:55;;;;;;;;;19.50;17.00;;;;;20.40;73.88;100440.59;4976470;28;45661;-75
2022/08/18 00:59:21;;;;;;;;;16.00;13.50;;;;;20.39;74.09;100443.38;4976330;28;45375;-74
2022/08/18 01:01:49;;;;;;;;;14.75;12.00;;;;;20.35;73.79;100433.81;4975534;28;45399;-75
2022/08/18 01:04:23;;;;;;;;;16.50;16.50;;;;;20.37;73.81;100439.94;4974385;28;46888;-76
2022/08/18 01:06:57;;;;;;;;;14.00;14.00;;;;;20.34;73.72;100435.63;4975159;28;45497;-76
2022/08/18 01:09:23;;;;;;;;;17.25;16.25;;;;;20.35;74.03;100440.03;4975117;28;45610;-76
2022/08/18 01:11:50;;;;;;;;;15.25;15.00;;;;;20.32;73.80;100437.56;4975851;28;45313;-75
2022/08/18 01:14:17;;;;;;;;;14.50;14.50;;;;;20.34;73.95;100440.13;4975735;28;45510;-76
2022/08/18 01:22:21;;;;;;;;;14.75;13.25;;;;;20.27;74.48;100420.91;4976974;28;45505;-76
2022/08/18 01:27:49;;;;;;;;;15.50;14.75;;;;;20.02;74.10;100389.38;4934114;28;45536;-76
2022/08/18 01:30:16;;;;;;;;;15.75;15.75;;;;;20.18;74.05;100422.31;4934117;28;45528;-75
2022/08/18 01:32:44;;;;;;;;;18.00;17.00;;;;;20.16;73.60;100423.38;4934725;28;45498;-76
2022/08/18 01:35:13;;;;;;;;;14.50;13.25;;;;;20.15;73.78;100440.44;4934801;28;45426;-75
2022/08/18 01:37:40;;;;;;;;;14.00;14.00;;;;;20.16;73.77;100434.97;4933859;28;45730;-75
2022/08/18 01:40:09;;;;;;;;;18.50;16.75;;;;;20.16;73.40;100440.34;4933450;28;45540;-74
2022/08/18 01:42:35;;;;;;;;;16.75;12.25;;;;;20.11;72.92;100425.50;4918566;28;45644;-75
2022/08/18 01:45:04;;;;;;;;;16.25;15.25;;;;;20.16;72.94;100439.47;4933767;28;45436;-75
2022/08/18 01:47:31;;;;;;;;;17.75;14.00;;;;;20.12;73.21;100433.44;4934143;28;45397;-76
2022/08/18 01:49:57;;;;;;;;;14.00;13.25;;;;;20.11;73.18;100437.06;4935221;28;45580;-75
2022/08/18 01:52:23;;;;;;;;;18.00;16.00;;;;;20.11;73.00;100437.06;4937446;28;45421;-77
2022/08/18 01:54:50;;;;;;;;;17.00;15.00;;;;;20.11;72.84;100441.59;4939829;28;45610;-74
2022/08/18 01:57:19;;;;;;;;;18.00;18.00;;;;;20.10;72.81;100440.69;4940058;28;45511;-74
2022/08/18 01:59:44;;;;;;;;;18.25;16.50;;;;;20.11;73.01;100453.16;4936000;28;45550;-76
2022/08/18 02:02:15;;;;;;;;;15.00;14.25;;;;;20.12;73.18;100448.66;4961180;28;45495;-75
2022/08/18 02:04:41;;;;;;;;;20.00;18.50;;;;;20.10;72.99;100439.84;4975865;28;45381;-74
2022/08/18 02:07:10;;;;;;;;;19.75;17.00;;;;;20.10;73.39;100439.84;4974760;28;45344;-76
2022/08/18 02:09:37;;;;;;;;;19.25;19.00;;;;;20.09;73.20;100443.47;4974916;28;45471;-76
2022/08/18 02:12:04;;;;;;;;;16.50;16.25;;;;;20.09;73.30;100443.47;4975139;28;45491;-75
2022/08/18 02:14:30;;;;;;;;;19.00;14.25;;;;;20.01;73.65;100434.09;4974587;28;45292;-75
2022/08/18 02:16:56;;;;;;;;;17.75;16.00;;;;;20.04;73.50;100435.72;4974677;28;45479;-77
2022/08/18 02:19:21;;;;;;;;;14.75;14.00;;;;;20.03;73.97;100444.75;4975282;28;45415;-76
2022/08/18 02:21:47;;;;;;;;;16.00;15.25;;;;;20.02;74.21;100454.59;4976198;28;45550;-75
2022/08/18 02:24:12;;;;;;;;;15.25;14.25;;;;;20.01;73.63;100449.31;5011635;28;47964;-76
2022/08/18 02:26:38;;;;;;;;;20.00;19.00;;;;;19.96;73.78;100449.59;4976670;28;45416;-75
2022/08/18 02:29:04;;;;;;;;;15.50;15.25;;;;;19.98;73.87;100458.44;4974558;28;45781;-75
2022/08/18 02:31:29;;;;;;;;;15.00;15.00;;;;;19.95;74.20;100449.69;4975490;28;45521;-75
2022/08/18 02:33:56;;;;;;;;;14.25;14.25;;;;;19.94;73.79;100450.69;4975174;28;45542;-75
2022/08/18 02:36:21;;;;;;;;;17.75;16.25;;;;;19.92;73.05;100452.56;4974852;28;45625;-74
2022/08/18 02:38:46;;;;;;;;;16.75;14.50;;;;;19.90;72.25;100455.34;4975299;28;45967;-74
2022/08/18 02:41:13;;;;;;;;;15.25;12.75;;;;;19.86;71.96;100448.47;4961570;28;45546;-74
2022/08/18 02:43:40;;;;;;;;;12.00;12.00;;;;;19.83;71.78;100453.97;4956873;28;45407;-73
2022/08/18 02:46:07;;;;;;;;;14.25;13.50;;;;;19.77;71.59;100447.19;4973867;28;45522;-73
2022/08/18 02:48:35;;;;;;;;;14.50;13.50;;;;;19.76;71.65;100449.94;4975240;28;45464;-73
2022/08/18 02:51:04;;;;;;;;;13.00;11.75;;;;;19.74;71.99;100449.16;4974542;28;45457;-74
2022/08/18 02:53:30;;;;;;;;;13.50;13.50;;;;;19.65;71.99;100440.72;4979822;28;45429;-74
2022/08/18 02:56:26;;;;;;;;;11.00;10.50;;;;;19.70;72.04;100448.47;4976225;28;45320;-74
2022/08/18 02:58:54;;;;;;;;;12.50;12.50;;;;;19.64;71.89;100441.66;4976459;28;45320;-74
2022/08/18 03:01:25;;;;;;;;;10.00;10.00;;;;;19.63;72.19;100442.63;4985371;28;45550;-74
2022/08/18 03:03:51;;;;;;;;;14.50;13.25;;;;;19.64;71.99;100451.53;4994169;28;46187;-76
2022/08/18 03:06:18;;;;;;;;;11.50;11.25;;;;;19.63;71.69;100448.00;4989860;28;45390;-75
2022/08/18 03:08:48;;;;;;;;;12.25;12.25;;;;;19.59;72.11;100441.09;4974919;28;45420;-74
2022/08/18 03:11:16;;;;;;;;;11.75;11.75;;;;;19.59;71.88;100443.75;4974540;28;45423;-74
2022/08/18 03:13:42;;;;;;;;;17.50;12.75;;;;;19.60;71.76;100436.56;4974466;28;46155;-73
2022/08/18 03:16:07;;;;;;;;;15.75;15.75;;;;;19.57;71.68;100440.31;4982584;28;45822;-74
2022/08/18 03:18:33;;;;;;;;;16.00;13.25;;;;;19.56;71.90;100435.06;4975288;28;45352;-73
2022/08/18 03:21:06;;;;;;;;;14.25;14.25;;;;;19.53;71.94;100431.59;4975336;28;45382;-74
2022/08/18 03:23:31;;;;;;;;;13.00;13.00;;;;;19.49;71.70;100418.47;4976087;28;45818;-74
2022/08/18 03:25:56;;;;;;;;;17.50;15.50;;;;;19.52;71.69;100426.31;4977437;28;45434;-74
2022/08/18 03:28:21;;;;;;;;;14.25;12.25;;;;;19.52;71.92;100429.00;4974241;28;45679;-74
2022/08/18 03:30:47;;;;;;;;;14.00;13.00;;;;;19.45;72.00;100416.91;4986496;28;45407;-74
2022/08/18 03:33:13;;;;;;;;;16.50;14.75;;;;;19.50;71.64;100425.56;4993806;28;47364;-74
2022/08/18 03:35:40;;;;;;;;;14.75;14.00;;;;;19.48;71.94;100436.38;4993668;28;45458;-74
2022/08/18 03:38:06;;;;;;;;;13.00;11.25;;;;;19.48;72.05;100428.31;4976488;28;45413;-74
2022/08/18 03:40:32;;;;;;;;;13.25;13.25;;;;;19.46;71.89;100424.84;4997814;28;45641;-74
2022/08/18 03:42:58;;;;;;;;;12.75;12.50;;;;;19.44;72.06;100421.41;4954186;28;45714;-74
2022/08/18 03:45:27;;;;;;;;;11.75;11.75;;;;;19.45;71.95;100435.66;4975641;28;45687;-74
2022/08/18 03:47:52;;;;;;;;;12.50;11.25;;;;;19.45;71.95;100433.00;4978365;28;45468;-73
2022/08/18 03:50:18;;;;;;;;;13.00;13.00;;;;;19.40;72.47;100430.59;4973993;28;45510;-73
2022/08/18 03:52:47;;;;;;;;;13.75;13.75;;;;;19.44;72.10;100431.28;4992281;28;47083;-74
2022/08/18 03:55:13;;;;;;;;;15.75;13.75;;;;;19.43;72.38;100424.19;4973881;28;45478;-74
2022/08/18 03:57:38;;;;;;;;;14.00;11.75;;;;;19.41;72.75;100429.63;4973272;28;45412;-74
2022/08/18 04:00:05;;;;;;;;;13.25;12.75;;;;;19.40;72.20;100424.38;4972632;28;45364;-74
2022/08/18 04:02:30;;;;;;;;;13.00;11.00;;;;;19.34;72.26;100418.44;4976116;28;46744;-73
2022/08/18 04:04:55;;;;;;;;;12.50;11.75;;;;;19.37;72.03;100427.22;4977168;28;45434;-74
2022/08/18 04:07:21;;;;;;;;;11.75;10.50;;;;;19.33;71.90;100421.19;4976653;28;45340;-74
2022/08/18 04:09:46;;;;;;;;;11.75;10.00;;;;;19.35;72.25;100421.97;4976419;28;45417;-74
2022/08/18 04:12:14;;;;;;;;;15.00;12.00;;;;;19.32;72.15;100417.63;4977189;28;46058;-76
2022/08/18 04:14:41;;;;;;;;;7.00;3.00;;;;;19.31;72.21;100413.25;4977330;28;45578;-75
2022/08/18 04:17:08;;;;;;;;;12.75;12.00;;;;;19.29;72.13;100414.28;4977822;28;45599;-73
2022/08/18 04:19:34;;;;;;;;;15.25;13.25;;;;;19.29;72.08;100414.28;4976117;28;45617;-74
2022/08/18 04:22:02;;;;;;;;;12.50;12.50;;;;;19.26;72.26;100417.16;4977345;28;45436;-74
2022/08/18 04:24:30;;;;;;;;;12.00;12.00;;;;;19.26;72.36;100420.69;4978215;28;45336;-73
2022/08/18 04:26:57;;;;;;;;;13.50;11.75;;;;;19.24;72.35;100419.06;4979552;28;45447;-74
2022/08/18 04:29:23;;;;;;;;;10.75;10.75;;;;;19.23;72.32;100420.00;4979583;28;45606;-74
2022/08/18 04:31:50;;;;;;;;;17.25;13.75;;;;;19.21;72.28;100422.78;4976604;28;45481;-73
2022/08/18 04:34:16;;;;;;;;;6.25;5.50;;;;;19.24;72.17;100419.91;4976674;28;45451;-74
2022/08/18 04:36:41;;;;;;;;;13.75;12.25;;;;;19.25;72.10;100420.78;4976877;28;45572;-73
2022/08/18 04:39:09;;;;;;;;;12.25;11.50;;;;;19.24;71.80;100425.28;4980104;28;45471;-74
2022/08/18 04:41:36;;;;;;;;;13.50;13.50;;;;;19.24;72.17;100433.31;4980355;28;46268;-73
2022/08/18 04:44:04;;;;;;;;;15.25;14.25;;;;;19.22;72.06;100432.56;4976268;28;45634;-72
2022/08/18 04:46:35;;;;;;;;;13.25;11.50;;;;;19.22;71.86;100431.66;4977915;28;45345;-75
2022/08/18 04:49:00;;;;;;;;;13.75;12.50;;;;;19.20;71.60;100431.75;4976841;28;45616;-74
2022/08/18 04:51:28;;;;;;;;;10.00;10.00;;;;;19.24;71.77;100432.47;4977680;28;45324;-73
2022/08/18 04:53:55;;;;;;;;;12.50;10.75;;;;;19.20;72.08;100423.72;4980413;28;45473;-72
2022/08/18 04:56:26;;;;;;;;;17.25;14.50;;;;;19.32;71.86;100435.53;4976517;28;45337;-74
2022/08/18 04:58:55;;;;;;;;;15.00;15.00;;;;;19.38;71.45;100434.31;4975488;28;45618;-74
2022/08/18 05:01:24;;;;;;;;;15.50;12.25;;;;;19.42;71.30;100435.84;4975707;28;46219;-74
2022/08/18 05:03:52;;;;;;;;;14.00;9.75;;;;;19.51;71.60;100437.97;4976115;28;45480;-74
2022/08/18 05:06:19;;;;;;;;;14.75;14.50;;;;;19.57;71.04;100442.13;4976645;28;45388;-73
2022/08/18 05:08:46;;;;;;;;;12.00;12.00;;;;;19.79;70.50;100447.94;4990510;28;45584;-74
2022/08/18 05:11:13;;;;;;;;;4.50;4.50;;;;;20.05;69.59;100442.81;4975320;28;45437;-74
2022/08/18 05:13:39;;;;;;;;;14.25;12.50;;;;;20.38;68.55;100457.78;4979374;28;45592;-74
2022/08/18 05:16:05;;;;;;;;;12.25;11.50;;;;;20.73;67.48;100460.94;4996429;28;45378;-74
2022/08/18 05:18:37;;;;;;;;;11.25;9.50;;;;;21.08;66.12;100460.44;4995887;28;45511;-74
2022/08/18 05:21:02;;;;;;;;;13.75;10.50;;;;;21.51;64.70;100459.44;4994732;28;46053;-75
2022/08/18 05:23:28;;;;;;;;;10.00;10.00;;;;;21.90;63.73;100454.13;4979294;28;45381;-74
2022/08/18 05:25:59;;;;;;;;;13.25;13.00;;;;;22.36;62.05;100456.28;4977294;28;45479;-73
2022/08/18 05:28:25;;;;;;;;;11.00;11.00;;;;;22.80;60.91;100456.75;4988351;28;45567;-73
2022/08/18 05:30:51;;;;;;;;;12.00;10.00;;;;;23.34;59.20;100458.19;4955964;28;45466;-75
2022/08/18 05:33:16;;;;;;;;;10.00;10.00;;;;;23.75;57.37;100462.25;4971808;28;45476;-74
2022/08/18 05:35:53;;;;;;;;;14.75;12.50;;;;;24.26;56.50;100458.31;4975942;28;45476;-75
2022/08/18 05:38:35;;;;;;;;;12.75;12.75;;;;;24.67;55.12;100461.41;4975809;28;45472;-74
2022/08/18 05:41:07;;;;;;;;;15.50;14.00;;;;;24.84;54.30;100458.19;4974858;28;45431;-75
2022/08/18 05:43:35;;;;;;;;;13.00;13.00;;;;;24.81;54.09;100474.66;4975138;28;45452;-75
2022/08/18 05:46:04;;;;;;;;;13.75;13.50;;;;;24.95;53.73;100478.94;4973891;28;45588;-74
2022/08/18 05:48:31;;;;;;;;;10.50;9.25;;;;;25.24;52.90;100462.16;4990909;28;45329;-75
2022/08/18 05:50:59;;;;;;;;;9.75;9.75;;;;;25.62;51.83;100485.97;4975916;28;45567;-75
2022/08/18 05:56:45;;;;;;;;;13.75;11.50;;;;;25.62;51.52;100483.28;4978653;28;45437;-75
2022/08/18 05:58:58;;;;;;;;;13.00;11.50;;;;;25.20;52.20;100480.44;4975331;28;45332;-75
2022/08/18 06:01:37;;;;;;;;;12.25;12.25;;;;;25.35;51.56;100495.44;4973574;28;47267;-76
2022/08/18 06:04:21;;;;;;;;;11.75;11.75;;;;;25.39;51.31;100495.16;4974674;28;45371;-77
2022/08/18 06:06:48;;;;;;;;;13.50;13.25;;;;;25.44;51.33;100488.41;4975415;28;45371;-75
2022/08/18 06:09:22;;;;;;;;;14.75;13.25;;;;;25.52;51.13;100495.84;4974936;28;45624;-76
2022/08/18 06:11:48;;;;;;;;;11.00;11.00;;;;;25.73;51.74;100492.34;4975052;28;46331;-76
2022/08/18 06:14:14;;;;;;;;;13.50;13.50;;;;;26.09;50.49;100488.34;4975602;28;45420;-76
2022/08/18 06:17:01;;;;;;;;;12.00;12.00;;;;;26.47;49.29;100480.56;4976589;28;45368;-75
2022/08/18 06:19:35;;;;;;;;;13.00;13.00;;;;;26.86;48.42;100475.28;4976489;28;45215;-75
2022/08/18 06:22:22;;;;;;;;;15.00;13.75;;;;;27.03;47.66;100480.03;4979120;28;46112;-75
2022/08/18 06:25:02;;;;;;;;;16.25;13.75;;;;;27.38;46.80;100481.41;4977723;28;45619;-77
2022/08/18 06:27:33;;;;;;;;;12.75;12.75;;;;;27.78;46.35;100487.66;4975864;28;45376;-76
2022/08/18 06:30:06;;;;;;;;;18.50;16.50;;;;;27.83;45.73;100488.06;4975135;28;45396;-76
2022/08/18 06:33:30;;;;;;;;;16.50;15.50;;;;;28.00;45.50;100483.81;4975067;28;45452;-77
2022/08/18 06:36:21;;;;;;;;;14.50;13.75;;;;;28.31;44.69;100491.72;4958798;28;45465;-75
2022/08/18 06:39:05;;;;;;;;;20.50;19.00;;;;;28.46;44.17;100498.41;4972747;28;47182;-77
2022/08/18 06:41:30;;;;;;;;;17.50;16.50;;;;;28.82;43.85;100495.84;4974889;28;45504;-76
2022/08/18 06:43:59;;;;;;;;;18.00;17.00;;;;;29.27;43.37;100499.59;4973995;28;45963;-76
2022/08/18 06:46:50;;;;;;;;;16.75;16.50;;;;;29.49;42.17;100487.41;4980721;28;45495;-73
2022/08/18 06:49:36;;;;;;;;;18.00;17.00;;;;;29.76;41.77;100497.34;4966246;28;45440;-74
2022/08/18 06:52:28;;;;;;;;;21.00;19.50;;;;;30.29;40.79;100498.25;4977788;28;45470;-76
2022/08/18 06:54:57;;;;;;;;;21.25;19.00;;;;;30.79;40.60;100495.78;4980541;28;47234;-74
2022/08/18 06:57:27;;;;;;;;;21.00;17.75;;;;;30.59;40.71;100503.38;4968541;28;45487;-76
2022/08/18 07:00:15;;;;;;;;;19.50;18.25;;;;;30.64;40.16;100501.00;4972230;28;45397;-74
2022/08/18 07:02:46;;;;;;;;;17.75;17.75;;;;;30.94;39.34;100504.19;4963152;28;45515;-74
2022/08/18 07:05:19;;;;;;;;;15.75;13.50;;;;;31.24;39.70;100508.22;4971980;28;45759;-74
2022/08/18 07:08:00;;;;;;;;;22.50;21.25;;;;;31.53;38.72;100502.28;4972644;28;45404;-74
2022/08/18 07:10:25;;;;;;;;;19.00;16.00;;;;;31.66;38.80;100511.91;4972377;28;45522;-76
2022/08/18 07:12:51;;;;;;;;;18.00;18.00;;;;;31.74;38.16;100508.31;4973612;28;45489;-75
2022/08/18 07:15:22;;;;;;;;;20.25;17.00;;;;;31.58;37.74;100504.53;4972390;28;45576;-74
2022/08/18 07:17:48;;;;;;;;;22.00;19.25;;;;;31.80;38.15;100505.75;4972227;28;45376;-75
2022/08/18 07:20:24;;;;;;;;;18.50;18.50;;;;;31.64;37.97;100509.34;4974549;28;45396;-73
2022/08/18 07:23:01;;;;;;;;;22.25;18.00;;;;;31.46;38.07;100506.75;4974738;28;45492;-74
2022/08/18 07:25:31;;;;;;;;;22.75;21.00;;;;;31.32;38.98;100500.06;4974335;28;45581;-73
2022/08/18 07:28:00;;;;;;;;;14.50;12.75;;;;;31.38;39.04;100494.94;4973158;28;45479;-75
2022/08/18 07:30:35;;;;;;;;;28.00;26.50;;;;;31.46;38.69;100501.28;4972323;28;45399;-73
2022/08/18 07:33:03;;;;;;;;;28.25;26.50;;;;;31.10;39.01;100508.88;4972580;28;45739;-75
2022/08/18 07:35:38;;;;;;;;;29.50;28.25;;;;;31.10;39.51;100511.63;4972094;28;45599;-74
2022/08/18 07:38:28;;;;;;;;;36.00;32.25;;;;;31.22;39.03;100509.41;4973366;28;45490;-74
2022/08/18 07:41:00;;;;;;;;;36.00;30.50;;;;;31.17;39.91;100512.63;4975645;28;45419;-74
2022/08/18 07:43:41;;;;;;;;;30.50;30.00;;;;;31.28;40.11;100514.19;4977040;28;45535;-75
2022/08/18 07:46:16;;;;;;;;;31.75;29.50;;;;;31.23;40.26;100517.44;4986397;28;46313;-74
2022/08/18 07:48:41;;;;;;;;;32.50;29.75;;;;;31.18;40.29;100520.66;4978072;28;45482;-75
2022/08/18 07:51:23;;;;;;;;;32.75;30.75;;;;;31.33;39.40;100522.75;4986803;28;45510;-77
2022/08/18 07:53:51;;;;;;;;;29.75;27.50;;;;;31.61;39.46;100537.00;4975828;28;45384;-78
2022/08/18 07:56:23;;;;;;;;;25.25;23.00;;;;;31.91;38.79;100526.41;4974805;28;46059;-76
2022/08/18 07:59:08;;;;;;;;;27.25;26.25;;;;;32.46;38.62;100522.06;4975622;28;45514;-76
2022/08/18 08:01:54;;;;;;;;;28.75;26.50;;;;;32.91;36.24;100514.25;4979376;28;45581;-75
2022/08/18 08:04:41;;;;;;;;;32.50;28.25;;;;;33.19;36.44;100524.69;4976492;28;45534;-76
2022/08/18 08:07:15;;;;;;;;;26.25;24.00;;;;;33.35;36.58;100510.94;4981061;28;45439;-76
2022/08/18 08:10:12;;;;;;;;;25.75;23.75;;;;;33.65;34.92;100508.34;4983256;28;45493;-76
2022/08/18 08:13:02;;;;;;;;;27.00;23.00;;;;;34.07;35.36;100517.91;4955597;28;45586;-76
2022/08/18 08:15:48;;;;;;;;;24.25;22.25;;;;;34.50;34.84;100507.22;4951139;28;45547;-76
2022/08/18 08:18:21;;;;;;;;;21.00;20.00;;;;;34.72;33.52;100500.97;4953573;28;45483;-78
2022/08/18 08:21:03;;;;;;;;;22.00;20.25;;;;;35.01;33.19;100497.34;4958777;28;45478;-76
2022/08/18 08:23:31;;;;;;;;;20.50;20.50;;;;;35.58;32.70;100498.41;4965390;28;45504;-75
2022/08/18 08:26:33;;;;;;;;;20.00;19.00;;;;;36.22;32.34;100493.84;4961566;28;45727;-78
2022/08/18 08:29:01;;;;;;;;;23.75;22.75;;;;;36.79;30.31;100483.63;4957024;28;46327;-76
2022/08/18 08:31:43;;;;;;;;;22.75;21.50;;;;;36.92;30.18;100482.84;4936804;28;45545;-79
2022/08/18 08:34:26;;;;;;;;;21.50;21.50;;;;;37.57;31.32;100474.94;4948543;28;45448;-77
2022/08/18 08:37:16;;;;;;;;;27.00;26.00;;;;;37.99;28.92;100467.34;4940748;28;45505;-78
2022/08/18 08:39:56;;;;;;;;;25.25;24.25;;;;;38.38;27.90;100465.56;4943729;28;46041;-76
2022/08/18 08:42:44;;;;;;;;;24.75;23.75;;;;;39.07;27.38;100468.69;4944704;28;45550;-76
2022/08/18 08:45:17;;;;;;;;;27.25;26.00;;;;;39.36;28.00;100477.47;4944206;28;45600;-77
2022/08/18 08:48:00;;;;;;;;;28.50;27.25;;;;;39.40;26.79;100481.47;4919759;28;45669;-76
2022/08/18 08:50:30;;;;;;;;;21.75;21.75;;;;;39.53;26.90;100487.97;4966995;28;45473;-77
2022/08/18 08:53:04;;;;;;;;;22.00;21.00;;;;;39.53;26.52;100499.03;4976937;28;45487;-76
2022/08/18 08:55:35;;;;;;;;;20.75;20.50;;;;;39.66;27.20;100498.94;4976708;28;45423;-76
2022/08/18 08:58:07;;;;;;;;;22.50;21.75;;;;;39.96;26.73;100499.09;4978372;28;45462;-75
2022/08/18 09:00:33;;;;;;;;;21.50;20.00;;;;;40.00;26.32;100496.78;4975827;28;46589;-75
2022/08/18 09:03:36;;;;;;;;;25.00;22.00;;;;;40.02;26.23;100499.31;4973192;28;45403;-76
2022/08/18 09:06:16;;;;;;;;;18.25;17.50;;;;;40.10;25.42;100505.41;4973308;28;45500;-77
2022/08/18 09:08:54;;;;;;;;;24.50;24.25;;;;;39.93;25.54;100504.25;4990206;28;45593;-76
2022/08/18 09:11:26;;;;;;;;;23.00;23.00;;;;;39.83;25.91;100506.66;4974775;28;45505;-76
2022/08/18 09:14:18;;;;;;;;;23.00;20.75;;;;;39.75;26.68;100511.44;4974622;28;45501;-76
2022/08/18 09:17:14;;;;;;;;;21.50;20.00;;;;;39.66;25.41;100507.22;4976157;28;45455;-76
2022/08/18 09:19:55;;;;;;;;;23.75;23.75;;;;;39.60;25.90;100520.06;4976553;28;45519;-74
2022/08/18 09:22:31;;;;;;;;;24.75;23.75;;;;;39.44;26.09;100523.31;4979776;28;46229;-75
2022/08/18 09:24:57;;;;;;;;;26.00;24.50;;;;;39.23;25.70;100519.00;4974710;28;45466;-74
2022/08/18 09:27:43;;;;;;;;;22.75;22.00;;;;;39.39;26.45;100521.22;4973909;28;45760;-75
2022/08/18 09:30:40;;;;;;;;;23.75;23.00;;;;;39.56;26.27;100520.72;4973232;28;45681;-75
2022/08/18 09:33:48;;;;;;;;;16.00;16.00;;;;;39.84;26.16;100513.91;4972348;28;46434;-74
2022/08/18 09:36:36;;;;;;;;;23.00;21.50;;;;;40.00;25.57;100521.66;4970048;28;45442;-74
2022/08/18 09:41:57;;;;;;;;;20.00;19.00;;;;;40.06;25.26;100511.63;4973324;28;45439;-75
2022/08/18 09:44:44;;;;;;;;;17.50;17.50;;;;;40.12;25.49;100514.31;4974497;28;45360;-75
2022/08/18 09:47:12;;;;;;;;;17.75;17.75;;;;;40.09;26.58;100503.69;4974298;28;45436;-73
2022/08/18 09:49:46;;;;;;;;;15.00;14.25;;;;;40.20;25.30;100520.63;4979681;28;45893;-73
2022/08/18 09:52:21;;;;;;;;;18.75;17.75;;;;;40.36;27.02;100519.19;4971400;28;45440;-74
2022/08/18 09:54:58;;;;;;;;;16.00;16.00;;;;;40.53;24.89;100519.44;4973420;28;46421;-74
2022/08/18 09:57:36;;;;;;;;;14.25;14.25;;;;;40.66;24.57;100516.53;4973752;28;45449;-75
2022/08/18 10:00:01;;;;;;;;;19.50;18.00;;;;;40.69;25.20;100521.59;4972494;28;45389;-75
2022/08/18 10:02:34;;;;;;;;;16.00;15.75;;;;;40.84;23.65;100519.28;4973271;28;45508;-75
2022/08/18 10:05:18;;;;;;;;;15.50;14.00;;;;;40.90;24.19;100514.75;4973342;28;45585;-75
2022/08/18 10:07:52;;;;;;;;;23.00;19.75;;;;;41.05;23.59;100517.13;4973204;28;45418;-74
2022/08/18 10:10:41;;;;;;;;;20.50;18.75;;;;;41.01;24.07;100504.81;4979364;28;45510;-75
2022/08/18 10:13:06;;;;;;;;;16.00;14.00;;;;;41.15;24.17;100509.09;4968280;28;45323;-74
2022/08/18 10:15:58;;;;;;;;;19.00;17.25;;;;;41.14;24.61;100499.09;4976266;28;45609;-73
2022/08/18 10:18:36;;;;;;;;;18.00;16.00;;;;;41.37;23.49;100491.97;4974150;28;45474;-75
2022/08/18 10:21:02;;;;;;;;;15.75;15.75;;;;;41.36;24.04;100482.81;4987345;28;45516;-75
2022/08/18 10:23:55;;;;;;;;;15.25;15.25;;;;;41.54;23.77;100486.56;4979726;28;45412;-74
2022/08/18 10:26:30;;;;;;;;;14.75;14.75;;;;;41.55;23.96;100485.50;4973135;28;47904;-74
2022/08/18 10:29:06;;;;;;;;;18.00;16.00;;;;;41.39;22.57;100481.47;4973079;28;45506;-74
2022/08/18 10:31:58;;;;;;;;;15.25;15.00;;;;;41.11;23.29;100474.63;4973236;28;45407;-75
2022/08/18 10:34:26;;;;;;;;;18.75;16.00;;;;;40.46;24.56;100469.72;4951692;28;45798;-75
2022/08/18 10:36:56;;;;;;;;;14.50;13.50;;;;;40.35;24.35;100474.06;4972170;28;45735;-75
2022/08/18 10:39:42;;;;;;;;;15.00;15.00;;;;;39.86;24.62;100457.31;4982155;28;45391;-74
2022/08/18 10:42:18;;;;;;;;;14.00;12.75;;;;;39.98;25.26;100462.91;4977210;28;45626;-74
2022/08/18 10:44:47;;;;;;;;;19.50;16.75;;;;;39.99;24.64;100456.34;4979644;28;45443;-74
2022/08/18 10:47:23;;;;;;;;;13.50;13.50;;;;;40.19;25.39;100463.59;4974866;28;45320;-74
2022/08/18 10:49:49;;;;;;;;;14.75;14.75;;;;;40.33;23.76;100467.94;4982476;28;45612;-74
2022/08/18 10:52:31;;;;;;;;;12.00;12.00;;;;;40.43;25.34;100462.72;4979675;28;45462;-75
2022/08/18 10:55:31;;;;;;;;;17.50;14.50;;;;;40.76;25.08;100457.84;4981723;28;45605;-75
2022/08/18 10:58:08;;;;;;;;;14.75;14.75;;;;;40.87;23.55;100458.97;4983988;28;46560;-76
2022/08/18 11:00:53;;;;;;;;;13.25;13.25;;;;;40.82;22.55;100463.28;4979968;28;45431;-74
2022/08/18 11:03:31;;;;;;;;;10.25;10.25;;;;;40.86;22.22;100463.66;4976224;28;45632;-75
2022/08/18 11:06:03;;;;;;;;;10.00;10.00;;;;;40.88;23.50;100469.84;4966251;28;45388;-75
2022/08/18 11:08:31;;;;;;;;;10.50;10.50;;;;;40.58;22.19;100453.19;4977597;28;45699;-74
2022/08/18 11:11:08;;;;;;;;;12.00;12.00;;;;;40.54;22.67;100460.25;4969647;28;45595;-77
2022/08/18 11:14:14;;;;;;;;;12.00;12.00;;;;;40.44;23.27;100456.09;4977275;28;45383;-83
2022/08/18 11:17:11;;;;;;;;;10.25;10.25;;;;;40.56;24.08;100452.53;4972427;28;45371;-74
2022/08/18 11:19:39;;;;;;;;;11.50;11.50;;;;;40.64;22.97;100453.09;4979198;28;45513;-73
2022/08/18 11:22:04;;;;;;;;;14.25;12.50;;;;;40.48;23.59;100450.94;4976520;28;45410;-74
2022/08/18 11:24:34;;;;;;;;;11.25;11.25;;;;;40.56;23.11;100453.41;4976209;28;45479;-73
2022/08/18 11:27:17;;;;;;;;;10.25;10.25;;;;;40.65;23.75;100452.00;4983854;28;45631;-74
2022/08/18 11:29:43;;;;;;;;;11.00;9.50;;;;;40.66;23.78;100463.91;4979798;28;45601;-73
2022/08/18 11:32:26;;;;;;;;;11.75;11.75;;;;;40.70;23.24;100465.16;4974906;28;45629;-74
2022/08/18 11:35:11;;;;;;;;;13.00;11.25;;;;;40.72;23.71;100462.97;4974672;28;45381;-74
2022/08/18 11:37:58;;;;;;;;;13.50;13.00;;;;;40.63;23.61;100464.38;4979888;28;45468;-80
2022/08/18 11:40:34;;;;;;;;;10.00;10.00;;;;;40.49;23.38;100458.19;4975125;28;45451;-73
2022/08/18 11:43:08;;;;;;;;;11.25;10.00;;;;;40.22;22.20;100449.31;4975642;28;45396;-74
2022/08/18 11:45:43;;;;;;;;;9.00;9.00;;;;;40.15;24.08;100450.22;4976392;28;45498;-74
2022/08/18 11:48:14;;;;;;;;;9.50;9.50;;;;;40.25;23.10;100462.69;4976470;28;45382;-73
2022/08/18 11:51:01;;;;;;;;;11.25;11.25;;;;;39.76;23.88;100466.09;4979073;28;45707;-73